Weather Data

Pearl Creek Farm: 8878 N Farm Road 75, Walnut Grove MO 65770

<== Previous Day (Tuesday 08 Jan 2008) | Next Day (Thursday 10 Jan 2008) ==>

Summary Precipitation Data For Wednesday 09 January 2008

ElementValueUnits
Precipitation0"
Notes(none)
SourceSpringfield-Branson National Airport (SGF)

Summary Temperature Data For Wednesday 09 January 2008

ElementValueUnits
High Temperature49 oF
Low Temperature26 oF
Average Temperature37 oF
High Humidity92 %
Low Humidity39 %
Average Humidity72 %
SourceSpringfield-Branson National Airport (SGF)

Detail Temperature Data For Wednesday 09 January 2008

Date / TimeTemp (F)RH (%)Dew Pt (F)Report Date / TimeSource
2008-01-09 00:52:00 32 85 28.0 2017-12-29 19:14:24.89625 Springfield-Branson National Airport (SGF)
2008-01-09 01:52:00 29 89 26.0 2017-12-29 19:14:24.89625 Springfield-Branson National Airport (SGF)
2008-01-09 02:52:00 27 89 24.0 2017-12-29 19:14:24.89625 Springfield-Branson National Airport (SGF)
2008-01-09 03:52:00 26 92 24.0 2017-12-29 19:14:24.89625 Springfield-Branson National Airport (SGF)
2008-01-09 04:52:00 27 92 25.0 2017-12-29 19:14:24.89625 Springfield-Branson National Airport (SGF)
2008-01-09 05:52:00 26 92 24.0 2017-12-29 19:14:24.89625 Springfield-Branson National Airport (SGF)
2008-01-09 06:52:00 26 88 23.0 2017-12-29 19:14:24.89625 Springfield-Branson National Airport (SGF)
2008-01-09 07:52:00 27 92 25.0 2017-12-29 19:14:24.89625 Springfield-Branson National Airport (SGF)
2008-01-09 08:52:00 31 89 28.0 2017-12-29 19:14:24.89625 Springfield-Branson National Airport (SGF)
2008-01-09 09:52:00 34 82 29.0 2017-12-29 19:14:24.89625 Springfield-Branson National Airport (SGF)
2008-01-09 10:52:00 39 65 28.0 2017-12-29 19:14:24.89625 Springfield-Branson National Airport (SGF)
2008-01-09 11:52:00 42 55 27.0 2017-12-29 19:14:24.89625 Springfield-Branson National Airport (SGF)
2008-01-09 12:52:00 45 49 27.0 2017-12-29 19:14:24.89625 Springfield-Branson National Airport (SGF)
2008-01-09 13:52:00 46 47 27.0 2017-12-29 19:14:24.89625 Springfield-Branson National Airport (SGF)
2008-01-09 14:52:00 49 39 25.0 2017-12-29 19:14:24.89625 Springfield-Branson National Airport (SGF)
2008-01-09 15:52:00 47 46 27.0 2017-12-29 19:14:24.89625 Springfield-Branson National Airport (SGF)
2008-01-09 16:52:00 45 49 27.0 2017-12-29 19:14:24.89625 Springfield-Branson National Airport (SGF)
2008-01-09 17:52:00 42 60 29.0 2017-12-29 19:14:24.89625 Springfield-Branson National Airport (SGF)
2008-01-09 18:52:00 40 68 30.0 2017-12-29 19:14:24.89625 Springfield-Branson National Airport (SGF)
2008-01-09 19:52:00 41 65 30.0 2017-12-29 19:14:24.89625 Springfield-Branson National Airport (SGF)
2008-01-09 20:52:00 40 70 31.0 2017-12-29 19:14:24.89625 Springfield-Branson National Airport (SGF)
2008-01-09 21:52:00 40 73 32.0 2017-12-29 19:14:24.89625 Springfield-Branson National Airport (SGF)
2008-01-09 22:52:00 39 79 33.0 2017-12-29 19:14:24.89625 Springfield-Branson National Airport (SGF)
2008-01-09 23:52:00 39 82 34.0 2017-12-29 19:14:24.89625 Springfield-Branson National Airport (SGF)

A total of 24 rows are displayed.